Lessines, Belgium
Current Conditions -  °F | °C
As of 12:42 PM on Tuesday 21 Oct 2014 (Local Time) from EBCV Reporting Station
Broken Clouds Broken Clouds  
Wind Chill: 55°   Ceiling: 2000
Heat Index: 55°   Visibility: 1.6mi
Dew Point: 52°   Wind: 26mph
Humidity: 88%   Direction: 220°SW
Pressure: 29.62"   Gusts: NA
Location:  50.71°N, 3.84°E
Report Text: EBCV 211042Z AUTO 22023KT 2600 FEW015/// BKN020/// BKN027/// 13/11 Q1003 YLO
Loading
Personal Weather Stations






























Interactive Weather Map
Tropical Storm Tracking
New forecast layout! Learn more

10-Day Weather Forecast

Advertisements
Track Severe Weather on mobile